METAR Data
IDs: Format: Raw Decoded Include TAF

Data at: 1252 UTC 25 Sep 2018

Region: TOP
KATL 251152Z 13004KT 6SM BR BKN009 BKN015 OVC020 23/21 A3018 RMK AO2 RAE16 SLP209 CIG 008V011 P0000 60000 T02330211 10239 20233 53010

KBOS 251208Z 11013KT 10SM BKN024 BKN140 OVC180 16/11 A3053 RMK AO2 T01610111

KBWI 251154Z 09005KT 5SM BR BKN011 OVC019 20/20 A3025 RMK AO2 RAE1056 SLP243 P0000 60012 70034 T02000200 10200 20178 56002

KCLE 251247Z 18009KT 10SM BKN008 OVC014 21/19 A3006 RMK AO2 $

KCLT 251244Z 08005KT 2 1/2SM BR BKN004 OVC007 22/21 A3023 RMK AO2 T02170211

KCVG 251230Z 19009KT 10SM OVC009 21/21 A3006 RMK AO2 RAB19E30 P0001 T02110211

KDCA 251152Z 36003KT 9SM OVC006 21/19 A3025 RMK AO2 SLP243 60001 70026 T02110194 10211 20200 55001

KDEN 251153Z 10006KT 10SM FEW015 03/01 A3023 RMK AO2 SLP197 70001 T00280006 10167 20028 51038

KDFW 251222Z 20009KT 10SM BKN010 BKN050 22/21 A2992 RMK AO2 T02220211

KDTW 251246Z 16005KT 1 1/2SM R03R/3000VP6000FT -RA BR BKN006 BKN012 OVC018 21/19 A2996 RMK AO2 SFC VIS 2 P0006 T02110189 $

KEWR 251151Z 04010KT 2 1/2SM -RA BR BKN007 OVC010 16/15 A3035 RMK AO2 SLP277 CIG 006V008 P0008 60023 70023 T01560150 10156 20150 56011 $

KFLL 251153Z 10005KT 10SM FEW016 FEW080 BKN250 28/27 A3003 RMK AO2 SLP170 60000 T02830267 10283 20272 53009

KIAD 251215Z 00000KT 2SM -RA BR OVC004 19/19 A3025 RMK AO2 P0001 T01940194

KIAH 251153Z 00000KT 10SM MIFG FEW025 FEW110 23/23 A2994 RMK AO2 SLP137 T02280228 10250 20228 53003

KJFK 251220Z 10018G23KT 1 3/4SM RA BR BKN006 OVC015 18/18 A3034 RMK AO2 SFC VIS 2 1/2 P0010 T01830183

KLAS 251156Z 00000KT 10SM CLR 26/02 A2989 RMK AO2 SLP092 T02610017 10294 20250 53012

KLAX 251234Z 31005KT 7SM FEW009 OVC012 18/15 A2989 RMK AO2 T01830150 $

KLGA 251231Z 06010KT 2 1/2SM R04/5000VP6000FT RA BR SCT005 OVC007 17/15 A3034 RMK AO2 P0006 T01670150 $

KMCO 251153Z 05005KT 10SM FEW030 FEW250 25/24 A3009 RMK AO2 SLP188 70003 T02500244 10256 20233 53013

KMDW 251153Z 21004KT 6SM BR FEW005 BKN012 OVC019 21/19 A2991 RMK AO2 RAE45 SLP121 P0014 60047 70052 T02060194 10211 20206 53004

KMEM 251217Z 21006KT 6SM -RA BR BKN008 OVC013 24/24 A3000 RMK AO2 P0003 T02390239 $

KMIA 251153Z 09004KT 10SM FEW020 SCT250 27/26 A3004 RMK AO2 SLP173 60000 70005 T02720256 10272 20256 53011

KMSP 251153Z 32007KT 10SM OVC011 12/11 A2991 RMK AO2 SLP128 60000 70027 T01170106 10150 20111 50002

KORD 251249Z 24003KT 6SM BR SCT014 BKN060 21/19 A2990 RMK AO2

KPDX 251153Z 32004KT 10SM CLR 11/08 A3021 RMK AO2 SLP229 T01110078 10161 20111 53002

KPHL 251243Z 07004KT 10SM OVC005 19/18 A3028 RMK AO2 RAE29 P0000 T01940183

KPHX 251151Z 00000KT 10SM SCT120 27/06 A2983 RMK AO2 SLP082 T02720056 10322 20272 53009

KPIT 251151Z 15006KT 6SM -RA BR BKN008 OVC016 17/17 A3015 RMK AO2 SLP213 P0002 60055 70095 T01720172 10172 20156 53000

KSAN 251151Z 00000KT 10SM OVC012 19/16 A2990 RMK AO2 SLP125 T01890156 10194 20189 55001

KSEA 251153Z 03005KT 10SM CLR 11/08 A3028 RMK AO2 SLP259 T01060083 10139 20100 58001

KSFO 251156Z 28007KT 10SM FEW006 BKN011 12/11 A2990 RMK AO2 SLP126 T01170106 10133 20111 53003

KSLC 251154Z 00000KT 10SM CLR 09/M02 A3020 RMK AO2 SLP196 T00891022 10117 20078 53009

KSTL 251151Z 30003KT 10SM SCT040 BKN080 BKN250 22/21 A2993 RMK AO2 SLP124 ACC NW T02220211 10233 20217 53007

KTPA 251153Z 05003KT 10SM FEW015 FEW150 27/23 A3009 RMK AO2 SLP187 CB DSNT SW 70065 T02670233 10272 20261 53015